Time;durP1;ratioP1;P1;durP2;ratioP2;P2;SDS_P1;SDS_P2;PMS_P1;PMS_P2;Temp;Humidity;BMP_temperature;BMP_pressure;BME280_temperature;BME280_humidity;BME280_pressure;Samples;Min_cycle;Max_cycle;Signal;HPM_P1;HPM_P2
2023/10/11 00:01:42;;;;;;;35.20;19.30;;;;;;;9.04;87.35;100394.33;130779;1253;106831;-76
2023/10/11 00:04:48;;;;;;;33.40;17.80;;;;;;;9.11;87.48;100390.83;130794;1254;108994;-76
2023/10/11 00:07:57;;;;;;;28.90;16.60;;;;;;;9.16;87.68;100387.14;130786;1253;107617;-76
2023/10/11 00:11:03;;;;;;;37.70;19.90;;;;;;;9.23;87.67;100379.61;130692;1257;107595;-79
2023/10/11 00:14:09;;;;;;;35.40;19.60;;;;;;;9.31;88.04;100377.48;130748;1257;108229;-77
2023/10/11 00:17:14;;;;;;;33.50;19.20;;;;;;;9.39;88.08;100371.52;130798;1266;107058;-76
2023/10/11 00:20:28;;;;;;;34.10;17.90;;;;;;;9.45;87.84;100363.70;130666;1253;108340;-76
2023/10/11 00:23:34;;;;;;;31.10;16.20;;;;;;;9.50;88.07;100361.50;130751;1254;108534;-77
2023/10/11 00:26:40;;;;;;;34.70;18.90;;;;;;;9.55;88.11;100355.91;130760;1258;108370;-77
2023/10/11 00:29:48;;;;;;;32.40;19.10;;;;;;;9.60;88.52;100355.19;130689;1254;107586;-76
2023/10/11 00:32:54;;;;;;;36.40;19.70;;;;;;;9.67;88.53;100353.83;130697;1266;106536;-76
2023/10/11 00:36:01;;;;;;;37.10;20.60;;;;;;;9.74;88.42;100352.27;130676;1267;106344;-77
2023/10/11 00:39:07;;;;;;;37.10;19.10;;;;;;;9.78;88.54;100348.20;130766;1254;106935;-76
2023/10/11 00:42:13;;;;;;;34.30;17.10;;;;;;;9.80;88.80;100350.28;130680;1258;108757;-77
2023/10/11 00:45:22;;;;;;;34.70;19.90;;;;;;;9.83;88.81;100344.36;130644;1257;107734;-76
2023/10/11 00:48:30;;;;;;;37.70;20.30;;;;;;;9.88;88.96;100342.98;130710;1258;106416;-76
2023/10/11 00:51:37;;;;;;;34.50;20.70;;;;;;;9.92;88.84;100341.73;130736;1253;106689;-76
2023/10/11 00:54:46;;;;;;;37.90;20.10;;;;;;;9.94;88.88;100340.27;130746;1257;107515;-76
2023/10/11 00:57:53;;;;;;;35.40;17.80;;;;;;;9.97;88.89;100337.53;130654;1253;107835;-76
2023/10/11 01:01:01;;;;;;;35.10;18.80;;;;;;;10.00;89.60;100332.41;130753;1257;107705;-76
2023/10/11 01:04:09;;;;;;;35.20;19.60;;;;;;;10.05;89.82;100329.27;130725;1253;107962;-77
2023/10/11 01:07:14;;;;;;;38.50;20.80;;;;;;;10.09;89.23;100323.94;130753;1257;107695;-77
2023/10/11 01:10:23;;;;;;;34.80;18.90;;;;;;;10.12;89.50;100324.56;130613;1258;106744;-77
2023/10/11 01:13:29;;;;;;;34.50;18.60;;;;;;;10.13;89.90;100322.27;130697;1258;106401;-76
2023/10/11 01:16:35;;;;;;;34.30;19.30;;;;;;;10.14;89.76;100320.02;130686;1253;107032;-77
2023/10/11 01:19:41;;;;;;;34.60;19.30;;;;;;;10.18;89.80;100321.42;130690;1258;107683;-76
2023/10/11 01:22:47;;;;;;;35.30;19.80;;;;;;;10.22;89.88;100325.13;130782;1257;107781;-76
2023/10/11 01:25:55;;;;;;;36.00;18.90;;;;;;;10.23;90.05;100324.48;130676;1253;108216;-76
2023/10/11 01:29:01;;;;;;;34.20;18.70;;;;;;;10.23;89.93;100323.45;130657;1257;107757;-76
2023/10/11 01:32:12;;;;;;;33.10;19.00;;;;;;;10.24;90.00;100322.09;130883;1253;108536;-79
2023/10/11 01:35:22;;;;;;;34.70;19.00;;;;;;;10.28;90.28;100319.64;130629;1260;107767;-76
2023/10/11 01:38:28;;;;;;;35.10;19.30;;;;;;;10.32;90.40;100315.73;130654;1257;107383;-77
2023/10/11 01:41:33;;;;;;;31.20;18.50;;;;;;;10.32;90.36;100315.31;130639;1253;106845;-78
2023/10/11 01:44:39;;;;;;;33.60;18.40;;;;;;;10.33;90.38;100310.22;130686;1256;107650;-77
2023/10/11 01:47:47;;;;;;;31.50;18.60;;;;;;;10.36;90.76;100303.92;130669;1256;106274;-78
2023/10/11 01:51:00;;;;;;;32.10;18.80;;;;;;;10.39;90.70;100303.55;130823;1257;106690;-78
2023/10/11 01:54:07;;;;;;;34.30;20.00;;;;;;;10.44;91.05;100300.98;130900;1258;106072;-76
2023/10/11 01:57:12;;;;;;;33.80;19.20;;;;;;;10.46;90.59;100301.32;130639;1268;106626;-76
2023/10/11 02:00:29;;;;;;;29.00;17.60;;;;;;;10.47;91.14;100296.99;130771;1254;106077;-77
2023/10/11 02:03:39;;;;;;;33.90;18.20;;;;;;;10.47;90.89;100291.77;130619;1253;107733;-76
2023/10/11 02:06:47;;;;;;;30.50;18.70;;;;;;;10.49;91.24;100290.85;130700;1257;107437;-77
2023/10/11 02:09:53;;;;;;;30.10;19.00;;;;;;;10.52;91.01;100283.80;130728;1253;108400;-77
2023/10/11 02:12:59;;;;;;;32.70;18.40;;;;;;;10.48;90.96;100267.46;130675;1257;109838;-77
2023/10/11 02:16:10;;;;;;;29.20;17.10;;;;;;;10.53;91.21;100270.55;130647;1260;108426;-77
2023/10/11 02:19:16;;;;;;;31.00;18.10;;;;;;;10.54;91.49;100266.20;130672;1257;106498;-77
2023/10/11 02:22:22;;;;;;;30.70;18.70;;;;;;;10.56;91.49;100262.77;130872;1258;107808;-78
2023/10/11 02:25:28;;;;;;;33.40;19.70;;;;;;;10.59;91.48;100260.14;131055;1257;107691;-77
2023/10/11 02:28:38;;;;;;;30.50;17.60;;;;;;;10.60;91.53;100253.48;130738;1257;106580;-78
2023/10/11 02:31:49;;;;;;;29.80;16.40;;;;;;;10.60;91.78;100247.27;131380;1256;107571;-76
2023/10/11 02:34:55;;;;;;;29.60;18.40;;;;;;;10.61;91.48;100245.36;130733;1253;109294;-79
2023/10/11 02:38:02;;;;;;;27.70;18.00;;;;;;;10.64;91.71;100245.33;130689;1253;107459;-80
2023/10/11 02:41:09;;;;;;;28.90;18.10;;;;;;;10.65;91.60;100244.80;130999;1256;106386;-77
2023/10/11 02:44:15;;;;;;;32.30;17.10;;;;;;;10.67;91.49;100245.79;131022;1253;108696;-78
2023/10/11 02:47:22;;;;;;;29.40;17.10;;;;;;;10.67;91.42;100246.45;131100;1253;108358;-77
2023/10/11 02:50:28;;;;;;;27.90;15.60;;;;;;;10.68;91.97;100245.50;131170;1256;107252;-78
2023/10/11 02:53:36;;;;;;;29.10;16.60;;;;;;;10.71;91.99;100241.45;130660;1256;108581;-77
2023/10/11 02:56:47;;;;;;;28.20;17.20;;;;;;;10.74;91.69;100237.73;130702;1257;107693;-77
2023/10/11 02:59:54;;;;;;;31.10;18.50;;;;;;;10.76;91.76;100237.46;130604;1257;107543;-78
2023/10/11 03:03:00;;;;;;;29.50;17.50;;;;;;;10.76;91.66;100235.04;130762;1259;107642;-77
2023/10/11 03:06:08;;;;;;;26.00;15.60;;;;;;;10.74;91.73;100234.46;130606;1259;108560;-77
2023/10/11 03:09:18;;;;;;;26.70;16.50;;;;;;;10.74;92.06;100233.60;130714;1256;107750;-77
2023/10/11 03:12:30;;;;;;;28.80;17.50;;;;;;;10.75;92.05;100230.17;130645;1258;107745;-77
2023/10/11 03:15:38;;;;;;;29.50;18.00;;;;;;;10.75;92.35;100228.88;130673;1261;108183;-77
2023/10/11 03:18:46;;;;;;;26.60;16.80;;;;;;;10.73;91.96;100231.02;130620;1255;107440;-77
2023/10/11 03:21:54;;;;;;;28.50;16.20;;;;;;;10.73;92.28;100230.02;130642;1260;107576;-77
2023/10/11 03:25:12;;;;;;;28.30;17.60;;;;;;;10.72;92.51;100226.51;130675;1260;106669;-77
2023/10/11 03:28:26;;;;;;;26.60;16.60;;;;;;;10.73;92.14;100222.73;130665;1258;106709;-77
2023/10/11 03:31:32;;;;;;;26.80;17.20;;;;;;;10.72;92.22;100212.86;130675;1259;107604;-77
2023/10/11 03:34:38;;;;;;;27.20;17.00;;;;;;;10.70;92.28;100212.18;130703;1258;106613;-77
2023/10/11 03:37:57;;;;;;;28.30;16.60;;;;;;;10.69;92.58;100205.88;130639;1256;106699;-76
2023/10/11 03:41:14;;;;;;;26.10;15.70;;;;;;;10.68;92.84;100202.95;130658;1254;107781;-77
2023/10/11 03:44:21;;;;;;;27.40;16.30;;;;;;;10.69;92.91;100202.64;130677;1255;107857;-77
2023/10/11 03:47:31;;;;;;;27.40;17.10;;;;;;;10.71;92.53;100203.15;130620;1257;106655;-77
2023/10/11 03:50:36;;;;;;;25.40;16.90;;;;;;;10.71;92.43;100198.34;130662;1258;106307;-77
2023/10/11 03:53:42;;;;;;;28.20;17.20;;;;;;;10.69;92.44;100195.57;130694;1258;106761;-77
2023/10/11 03:56:52;;;;;;;24.50;15.20;;;;;;;10.66;92.68;100191.54;130646;1254;107546;-77
2023/10/11 03:59:59;;;;;;;24.90;16.60;;;;;;;10.62;93.01;100189.05;130699;1255;106760;-77
2023/10/11 04:03:07;;;;;;;27.40;16.90;;;;;;;10.60;92.67;100190.87;130618;1258;107112;-75
2023/10/11 04:06:15;;;;;;;25.90;16.80;;;;;;;10.58;92.54;100190.17;130693;1259;108507;-78
2023/10/11 04:09:37;;;;;;;24.90;16.10;;;;;;;10.54;92.77;100184.17;130801;1254;106250;-79
2023/10/11 04:12:46;;;;;;;26.40;16.00;;;;;;;10.49;92.66;100182.71;130775;1257;107362;-77
2023/10/11 04:15:52;;;;;;;26.80;16.80;;;;;;;10.46;92.75;100177.39;130741;1259;106972;-77
2023/10/11 04:19:01;;;;;;;25.80;17.20;;;;;;;10.45;92.88;100178.07;130785;1257;107992;-79
2023/10/11 04:22:18;;;;;;;27.10;17.10;;;;;;;10.42;92.64;100173.29;130628;1254;106650;-78
2023/10/11 04:25:26;;;;;;;25.70;15.70;;;;;;;10.37;93.15;100170.27;130683;1254;109251;-77
2023/10/11 04:28:32;;;;;;;25.50;16.20;;;;;;;10.34;93.08;100167.94;130717;1257;106857;-77
2023/10/11 04:31:54;;;;;;;27.00;16.90;;;;;;;10.33;93.24;100162.86;130644;1257;107758;-76
2023/10/11 04:35:00;;;;;;;27.50;17.30;;;;;;;10.32;92.92;100158.83;130619;1258;106869;-78
2023/10/11 04:38:07;;;;;;;24.70;17.40;;;;;;;10.32;93.04;100156.95;130692;1257;107858;-76
2023/10/11 04:41:15;;;;;;;26.30;16.50;;;;;;;10.30;92.93;100157.66;130591;1254;106620;-77
2023/10/11 04:44:22;;;;;;;26.70;16.30;;;;;;;10.27;92.98;100155.05;130657;1257;106970;-76
2023/10/11 04:47:50;;;;;;;25.20;16.80;;;;;;;10.27;93.24;100152.89;130608;1256;107042;-78
2023/10/11 04:50:55;;;;;;;27.00;17.00;;;;;;;10.30;93.62;100148.42;130693;1257;107334;-76
2023/10/11 04:54:12;;;;;;;26.00;17.20;;;;;;;10.33;93.88;100145.60;130661;1258;107104;-77
2023/10/11 04:57:19;;;;;;;26.20;17.60;;;;;;;10.38;93.76;100148.80;130671;1256;106408;-76
2023/10/11 05:00:31;;;;;;;26.30;17.00;;;;;;;10.40;93.71;100139.19;130736;1257;107178;-76
2023/10/11 05:03:38;;;;;;;28.30;17.10;;;;;;;10.40;93.98;100139.32;130688;1254;107557;-76
2023/10/11 05:06:45;;;;;;;24.90;15.80;;;;;;;10.42;93.67;100140.04;131939;1253;107904;-78
2023/10/11 05:09:56;;;;;;;27.50;16.90;;;;;;;10.47;94.22;100137.77;135068;1253;107868;-77
2023/10/11 05:13:05;;;;;;;26.30;16.70;;;;;;;10.54;94.01;100139.73;135110;1253;107607;-78
2023/10/11 05:16:13;;;;;;;26.10;17.90;;;;;;;10.61;94.01;100145.07;135065;1253;107684;-74
2023/10/11 05:19:20;;;;;;;27.20;16.60;;;;;;;10.67;94.37;100137.74;135022;1253;107034;-75
2023/10/11 05:22:45;;;;;;;26.70;16.10;;;;;;;10.73;94.19;100136.44;132624;1254;106411;-74
2023/10/11 05:25:59;;;;;;;24.30;15.70;;;;;;;10.80;94.24;100131.36;130714;1257;107031;-74
2023/10/11 05:29:13;;;;;;;25.80;17.20;;;;;;;10.89;94.23;100138.18;130627;1256;106451;-75
2023/10/11 05:32:23;;;;;;;27.70;17.60;;;;;;;10.94;94.20;100139.05;130615;1253;106760;-74
2023/10/11 05:36:09;;;;;;;26.60;17.70;;;;;;;11.01;94.08;100141.38;130606;1253;106016;-75
2023/10/11 05:52:56;;;;;;;25.20;18.80;;;;;;;11.24;94.77;100131.48;130615;1257;109364;-77
2023/10/11 05:56:02;;;;;;;28.20;17.90;;;;;;;11.29;94.67;100127.40;130667;1257;107291;-75
2023/10/11 05:59:10;;;;;;;28.00;17.70;;;;;;;11.34;94.91;100119.90;130632;1253;107766;-75
2023/10/11 06:02:18;;;;;;;26.10;17.60;;;;;;;11.41;94.84;100125.23;130698;1253;106270;-75
2023/10/11 06:05:24;;;;;;;27.60;18.40;;;;;;;11.48;94.99;100116.85;130629;1256;106811;-75
2023/10/11 06:08:31;;;;;;;27.50;17.80;;;;;;;11.55;94.92;100113.23;130647;1253;107079;-75
2023/10/11 06:11:38;;;;;;;29.10;18.60;;;;;;;11.61;94.80;100108.35;130624;1258;107737;-75
2023/10/11 06:14:46;;;;;;;26.60;17.60;;;;;;;11.67;94.69;100108.08;130632;1257;106891;-76
2023/10/11 06:17:54;;;;;;;25.40;17.10;;;;;;;11.75;94.99;100101.52;130575;1256;106497;-75
2023/10/11 06:21:05;;;;;;;25.30;17.50;;;;;;;11.87;95.00;100099.96;130682;1258;105573;-75
2023/10/11 06:24:13;;;;;;;25.40;17.60;;;;;;;12.00;95.00;100097.77;130599;1258;106317;-75
2023/10/11 06:30:46;;;;;;;26.20;18.50;;;;;;;12.24;94.77;100097.33;130651;1256;107532;-75
2023/10/11 06:33:52;;;;;;;24.90;17.90;;;;;;;12.32;94.72;100094.16;130649;1258;107277;-75
2023/10/11 06:36:57;;;;;;;23.70;17.60;;;;;;;12.41;94.90;100095.09;130656;1257;106651;-75
2023/10/11 06:40:13;;;;;;;25.00;18.00;;;;;;;12.53;94.80;100097.00;130642;1256;107234;-75
2023/10/11 06:43:19;;;;;;;24.20;18.30;;;;;;;12.63;94.78;100101.60;130696;1258;107320;-75
2023/10/11 06:46:24;;;;;;;25.80;17.60;;;;;;;12.72;94.71;100103.85;130667;1252;107661;-75
2023/10/11 06:49:31;;;;;;;26.60;17.50;;;;;;;12.80;94.75;100107.23;130668;1257;107483;-74
2023/10/11 06:52:42;;;;;;;24.40;17.80;;;;;;;12.88;94.82;100097.60;130723;1258;108571;-75
2023/10/11 06:55:50;;;;;;;27.20;18.20;;;;;;;12.99;94.76;100097.28;130767;1258;107332;-75
2023/10/11 06:58:56;;;;;;;24.60;17.60;;;;;;;13.09;94.85;100100.63;130724;1257;107587;-75
2023/10/11 07:02:02;;;;;;;23.80;17.30;;;;;;;13.17;94.69;100100.80;130691;1253;108700;-75
2023/10/11 07:05:14;;;;;;;23.70;17.40;;;;;;;13.24;94.82;100101.05;130737;1252;107589;-74
2023/10/11 07:08:21;;;;;;;24.90;16.80;;;;;;;13.32;94.94;100090.15;130702;1257;107583;-74
2023/10/11 07:14:54;;;;;;;23.00;17.20;;;;;;;13.52;94.92;100079.29;130634;1253;106033;-74
2023/10/11 07:18:00;;;;;;;26.00;17.60;;;;;;;13.61;94.91;100076.52;130732;1257;108699;-74
2023/10/11 07:21:07;;;;;;;21.20;15.40;;;;;;;13.68;94.93;100069.65;130623;1253;106846;-74
2023/10/11 07:24:31;;;;;;;22.80;17.10;;;;;;;13.78;95.19;100064.85;130770;1257;107645;-73
2023/10/11 07:27:38;;;;;;;23.40;17.90;;;;;;;13.94;95.16;100064.47;130699;1257;107710;-73
2023/10/11 07:30:47;;;;;;;25.00;17.60;;;;;;;14.10;95.19;100062.59;130725;1258;107008;-73
2023/10/11 07:33:55;;;;;;;23.20;16.70;;;;;;;14.24;95.11;100057.36;130795;1257;106688;-74
2023/10/11 07:37:03;;;;;;;21.60;15.10;;;;;;;14.40;95.06;100046.34;130747;1258;105764;-73
2023/10/11 07:40:12;;;;;;;27.20;17.30;;;;;;;14.58;95.21;100043.63;130752;1253;106466;-74
2023/10/11 07:43:18;;;;;;;24.70;16.80;;;;;;;14.71;94.82;100043.36;130757;1254;107077;-73
2023/10/11 07:46:24;;;;;;;22.40;16.20;;;;;;;14.81;94.68;100044.16;130658;1257;107698;-74
2023/10/11 07:49:37;;;;;;;20.50;14.70;;;;;;;14.88;94.67;100043.26;130713;1257;107651;-74
2023/10/11 07:52:44;;;;;;;20.30;14.60;;;;;;;14.94;94.61;100041.15;130706;1253;108078;-73
2023/10/11 07:55:50;;;;;;;20.10;14.60;;;;;;;15.01;94.67;100031.32;130810;1256;106281;-73
2023/10/11 07:58:57;;;;;;;22.80;15.50;;;;;;;15.09;94.62;100030.54;130772;1254;109161;-75
2023/10/11 08:02:08;;;;;;;20.20;15.10;;;;;;;15.16;94.46;100026.21;130836;1253;107690;-74
2023/10/11 08:05:14;;;;;;;19.80;14.00;;;;;;;15.22;94.39;100020.36;130719;1257;107911;-73
2023/10/11 08:08:21;;;;;;;18.50;13.50;;;;;;;15.27;94.47;100015.25;130790;1253;106955;-74
2023/10/11 08:11:28;;;;;;;21.30;14.90;;;;;;;15.33;94.40;100014.37;130741;1258;107517;-75
2023/10/11 08:14:33;;;;;;;19.80;15.30;;;;;;;15.40;94.11;100007.50;130762;1259;107124;-75
2023/10/11 08:17:40;;;;;;;20.30;15.80;;;;;;;15.47;94.14;100003.98;130741;1268;106020;-74
2023/10/11 08:20:46;;;;;;;21.80;14.90;;;;;;;15.56;94.13;100004.67;130767;1256;107825;-74
2023/10/11 08:23:52;;;;;;;19.10;14.60;;;;;;;15.63;93.93;100001.92;130807;1256;107553;-74
2023/10/11 08:27:06;;;;;;;19.40;14.30;;;;;;;15.73;94.07;100003.33;130804;1257;107807;-74
2023/10/11 08:30:17;;;;;;;19.30;14.60;;;;;;;15.88;94.07;100005.00;130754;1258;106614;-74
2023/10/11 08:33:23;;;;;;;19.60;14.90;;;;;;;16.04;93.75;100001.91;130839;1257;107872;-74
2023/10/11 08:36:29;;;;;;;19.40;14.00;;;;;;;16.17;93.55;100004.02;130742;1258;106308;-74
2023/10/11 08:39:41;;;;;;;16.00;11.40;;;;;;;16.26;93.49;99994.27;130837;1257;106632;-74
2023/10/11 08:42:50;;;;;;;19.10;13.30;;;;;;;16.35;93.46;99990.40;130780;1256;105612;-74
2023/10/11 08:46:00;;;;;;;17.20;13.20;;;;;;;16.45;93.31;99986.17;130806;1258;107162;-74
2023/10/11 08:49:07;;;;;;;20.60;12.80;;;;;;;16.54;93.15;99982.40;130795;1258;106637;-74
2023/10/11 08:52:17;;;;;;;17.20;13.00;;;;;;;16.60;92.98;99972.94;130831;1256;107669;-74
2023/10/11 08:55:24;;;;;;;16.60;11.70;;;;;;;16.66;93.12;99967.59;130782;1258;107718;-74
2023/10/11 08:58:30;;;;;;;16.00;11.20;;;;;;;16.72;93.13;99964.09;130781;1253;106445;-75
2023/10/11 09:01:37;;;;;;;15.60;11.60;;;;;;;16.81;93.00;99967.86;130776;1258;108543;-74
2023/10/11 09:04:57;;;;;;;16.40;11.50;;;;;;;16.93;92.90;99965.29;130803;1257;107757;-75
2023/10/11 09:08:04;;;;;;;17.10;10.80;;;;;;;17.03;92.57;99963.04;130885;1253;108924;-75
2023/10/11 09:11:15;;;;;;;13.80;10.60;;;;;;;17.12;92.65;99963.35;130819;1258;105503;-75
2023/10/11 09:14:23;;;;;;;14.70;11.20;;;;;;;17.20;92.45;99964.08;130805;1253;106772;-74
2023/10/11 09:17:38;;;;;;;13.20;9.30;;;;;;;17.29;92.33;99959.16;130755;1253;108504;-75
2023/10/11 09:20:49;;;;;;;14.40;10.30;;;;;;;17.38;92.24;99957.18;130857;1253;108691;-75
2023/10/11 09:23:55;;;;;;;14.00;10.60;;;;;;;17.49;92.01;99953.38;130800;1258;106604;-75
2023/10/11 09:27:18;;;;;;;12.60;9.80;;;;;;;17.61;91.67;99948.96;130775;1258;107857;-75
2023/10/11 09:30:27;;;;;;;14.60;10.50;;;;;;;17.74;91.45;99948.50;130803;1257;108652;-74
2023/10/11 09:33:35;;;;;;;16.00;9.40;;;;;;;17.85;91.22;99950.77;130808;1253;106754;-74
2023/10/11 09:36:43;;;;;;;11.20;8.80;;;;;;;17.96;90.63;99953.77;130801;1259;107385;-74
2023/10/11 09:39:51;;;;;;;13.10;8.50;;;;;;;18.09;90.87;99944.82;130800;1258;106566;-74
2023/10/11 09:43:04;;;;;;;11.50;8.10;;;;;;;18.25;90.69;99941.60;130754;1259;107664;-74
2023/10/11 09:46:13;;;;;;;11.90;8.80;;;;;;;18.40;90.68;99937.33;130706;1256;108515;-75
2023/10/11 09:49:21;;;;;;;11.00;7.90;;;;;;;18.52;90.39;99940.73;130783;1258;106720;-74
2023/10/11 09:52:29;;;;;;;11.20;7.80;;;;;;;18.61;89.85;99942.90;130753;1257;107445;-74
2023/10/11 09:55:42;;;;;;;11.80;7.20;;;;;;;18.69;89.63;99935.97;130489;1258;290310;-75
2023/10/11 09:59:06;;;;;;;12.50;7.60;;;;;;;18.79;89.53;99930.66;130756;1257;107665;-74
2023/10/11 10:02:20;;;;;;;11.60;7.80;;;;;;;18.92;89.33;99928.86;130832;1258;106695;-74
2023/10/11 10:05:30;;;;;;;11.50;7.80;;;;;;;19.05;89.16;99923.17;130787;1256;107935;-74
2023/10/11 10:08:36;;;;;;;10.00;7.40;;;;;;;19.16;88.43;99920.20;130900;1258;107453;-75
2023/10/11 10:12:20;;;;;;;9.60;6.80;;;;;;;19.25;87.90;99919.90;130711;1253;107832;-75
2023/10/11 10:15:30;;;;;;;8.20;6.20;;;;;;;19.35;88.15;99915.50;130687;1258;106751;-74
2023/10/11 10:18:39;;;;;;;12.10;7.10;;;;;;;19.46;87.69;99911.47;130786;1256;108079;-74
2023/10/11 10:22:15;;;;;;;12.30;6.50;;;;;;;19.58;86.83;99912.66;130774;1258;107008;-74
2023/10/11 10:25:21;;;;;;;11.50;6.30;;;;;;;19.72;86.85;99915.45;130772;1258;107005;-74
2023/10/11 10:28:57;;;;;;;11.00;7.10;;;;;;;19.82;86.65;99914.61;130756;1258;107360;-75
2023/10/11 10:32:09;;;;;;;10.00;6.40;;;;;;;19.90;86.01;99906.96;130868;1253;107528;-75
2023/10/11 10:35:36;;;;;;;8.40;6.00;;;;;;;19.94;85.68;99900.70;130819;1253;106393;-75
2023/10/11 10:42:35;;;;;;;10.20;5.90;;;;;;;20.04;85.37;99894.73;130627;1258;106451;-74
2023/10/11 10:45:41;;;;;;;11.90;5.60;;;;;;;20.07;85.16;99889.89;130775;1256;106634;-75
2023/10/11 10:48:55;;;;;;;7.20;5.70;;;;;;;20.10;84.54;99884.73;130696;1258;107142;-74
2023/10/11 10:52:00;;;;;;;10.00;6.00;;;;;;;20.11;83.83;99884.04;130881;1258;107961;-75
2023/10/11 10:55:07;;;;;;;7.60;5.70;;;;;;;20.13;83.92;99882.02;130721;1259;107439;-75
2023/10/11 10:58:20;;;;;;;9.30;5.80;;;;;;;20.15;83.77;99880.63;130767;1257;108475;-76
2023/10/11 11:01:29;;;;;;;7.50;5.30;;;;;;;20.14;83.61;99879.46;130780;1258;106678;-75
2023/10/11 11:04:35;;;;;;;10.20;5.50;;;;;;;20.18;83.50;99879.64;130799;1259;107708;-75
2023/10/11 11:07:41;;;;;;;10.10;5.60;;;;;;;20.20;83.14;99879.31;130772;1257;106691;-75
2023/10/11 11:10:54;;;;;;;7.70;5.20;;;;;;;20.24;82.92;99876.36;130792;1259;107227;-75
2023/10/11 11:14:07;;;;;;;11.50;5.80;;;;;;;20.28;82.48;99869.73;130808;1258;107603;-75
2023/10/11 11:17:19;;;;;;;9.50;6.20;;;;;;;20.30;82.37;99869.16;130708;1258;107165;-76
2023/10/11 11:20:34;;;;;;;12.40;6.20;;;;;;;20.31;81.83;99869.55;130769;1259;107792;-75
2023/10/11 11:23:42;;;;;;;8.00;5.60;;;;;;;20.31;81.90;99866.14;130810;1256;107771;-75
2023/10/11 11:26:48;;;;;;;8.10;5.60;;;;;;;20.30;81.43;99862.31;130755;1258;107880;-75
2023/10/11 11:29:53;;;;;;;13.40;5.80;;;;;;;20.30;81.41;99861.93;130662;1257;107505;-75
2023/10/11 11:32:59;;;;;;;8.70;6.50;;;;;;;20.30;81.39;99865.23;130733;1259;107702;-75
2023/10/11 11:36:10;;;;;;;8.80;5.40;;;;;;;20.30;80.84;99868.16;130712;1253;106763;-75
2023/10/11 11:39:26;;;;;;;9.90;5.50;;;;;;;20.30;80.25;99868.61;130773;1257;107165;-76
2023/10/11 11:42:34;;;;;;;9.20;5.30;;;;;;;20.31;79.81;99860.55;130794;1257;107437;-75
2023/10/11 11:45:39;;;;;;;9.30;5.40;;;;;;;20.32;80.05;99853.67;130691;1258;107564;-75
2023/10/11 11:48:45;;;;;;;8.40;5.40;;;;;;;20.35;79.71;99851.55;130752;1253;106824;-75
2023/10/11 11:51:53;;;;;;;11.80;6.10;;;;;;;20.36;79.58;99850.20;130694;1259;107677;-75
2023/10/11 11:54:58;;;;;;;7.40;5.50;;;;;;;20.35;79.24;99843.84;130811;1254;107402;-75
2023/10/11 11:58:10;;;;;;;10.40;5.80;;;;;;;20.33;79.18;99844.70;130757;1253;108473;-75
2023/10/11 12:01:16;;;;;;;;;;;;;;;20.33;79.08;99841.33;130732;1259;106594;-75
2023/10/11 12:04:29;;;;;;;7.50;5.20;;;;;;;20.29;78.57;99843.05;130751;1253;107614;-75
2023/10/11 12:07:34;;;;;;;8.90;5.70;;;;;;;20.25;78.46;99844.80;130746;1258;107309;-75
2023/10/11 12:10:47;;;;;;;9.90;6.00;;;;;;;20.23;78.41;99842.36;130728;1259;106846;-75
2023/10/11 12:13:52;;;;;;;8.60;5.30;;;;;;;20.23;77.98;99839.91;130747;1254;107744;-75
2023/10/11 12:16:58;;;;;;;8.30;5.60;;;;;;;20.19;78.09;99843.69;130696;1257;108932;-76
2023/10/11 12:20:12;;;;;;;10.10;5.30;;;;;;;20.16;78.19;99844.91;130691;1259;107564;-75
2023/10/11 12:23:18;;;;;;;7.90;4.70;;;;;;;20.13;77.99;99848.51;130746;1258;108396;-75
2023/10/11 12:26:26;;;;;;;10.60;5.60;;;;;;;20.12;77.83;99850.70;130729;1258;108684;-75
2023/10/11 12:29:32;;;;;;;9.30;5.20;;;;;;;20.14;77.55;99850.21;130745;1257;106287;-75
2023/10/11 12:32:37;;;;;;;9.90;5.50;;;;;;;20.15;77.09;99852.94;130732;1259;107664;-75
2023/10/11 12:35:43;;;;;;;10.50;5.70;;;;;;;20.16;76.75;99854.44;130719;1258;106495;-75
2023/10/11 12:38:49;;;;;;;9.30;5.60;;;;;;;20.16;76.68;99851.15;130726;1259;107557;-75
2023/10/11 12:41:55;;;;;;;8.60;5.20;;;;;;;20.16;76.73;99844.70;130672;1257;107954;-75
2023/10/11 12:45:00;;;;;;;10.70;5.60;;;;;;;20.15;76.63;99842.11;130714;1259;108587;-76
2023/10/11 12:48:07;;;;;;;29.70;17.80;;;;;;;20.12;76.38;99840.15;130639;1266;106618;-75
2023/10/11 12:51:13;;;;;;;84.20;47.30;;;;;;;20.10;76.26;99840.55;130686;1258;106630;-75
2023/10/11 12:54:19;;;;;;;62.20;40.70;;;;;;;20.08;76.19;99839.46;130714;1259;107513;-75
2023/10/11 12:57:27;;;;;;;66.70;34.70;;;;;;;20.04;75.85;99834.91;130834;1267;108492;-76
2023/10/11 13:00:37;;;;;;;82.90;35.70;;;;;;;20.02;75.77;99833.59;130719;1259;106584;-75
2023/10/11 13:03:42;;;;;;;265.10;110.30;;;;;;;20.01;75.68;99828.70;130754;1257;106485;-75
2023/10/11 13:06:50;;;;;;;75.40;42.80;;;;;;;20.03;75.71;99825.17;130669;1256;108764;-75
2023/10/11 13:10:02;;;;;;;61.00;40.40;;;;;;;20.05;75.41;99821.95;130841;1253;108312;-76
2023/10/11 13:13:09;;;;;;;47.00;33.60;;;;;;;20.05;75.08;99814.14;130658;1258;107153;-75
2023/10/11 13:16:26;;;;;;;67.90;49.70;;;;;;;20.06;74.73;99809.72;130745;1257;106823;-75
2023/10/11 13:19:32;;;;;;;29.30;21.50;;;;;;;20.06;74.98;99801.97;130726;1257;106643;-75
2023/10/11 13:22:37;;;;;;;13.60;9.40;;;;;;;20.04;74.60;99797.96;130627;1267;107070;-75
2023/10/11 13:25:44;;;;;;;760.00;532.80;;;;;;;20.00;74.87;99801.69;130776;1257;106899;-75
2023/10/11 13:28:53;;;;;;;267.60;136.50;;;;;;;19.97;74.52;99801.29;130729;1258;106200;-75
2023/10/11 13:31:59;;;;;;;148.80;80.20;;;;;;;19.96;74.54;99798.77;130727;1254;107522;-77
2023/10/11 13:35:06;;;;;;;40.10;23.00;;;;;;;19.95;74.54;99792.17;130736;1257;108726;-75
2023/10/11 13:38:17;;;;;;;20.70;13.20;;;;;;;19.95;74.51;99792.69;130668;1254;107884;-75
2023/10/11 13:41:27;;;;;;;14.90;9.30;;;;;;;19.95;74.24;99791.20;130725;1253;107901;-75
2023/10/11 13:44:35;;;;;;;11.20;8.80;;;;;;;19.94;74.28;99791.52;130682;1257;107399;-74
2023/10/11 13:47:41;;;;;;;9.90;7.20;;;;;;;19.92;73.95;99784.26;130658;1267;106628;-74
2023/10/11 13:50:49;;;;;;;11.10;7.50;;;;;;;19.90;74.10;99782.08;130698;1256;106808;-74
2023/10/11 13:53:55;;;;;;;49.10;33.70;;;;;;;19.87;73.89;99773.04;130739;1259;107904;-74
2023/10/11 13:57:06;;;;;;;213.40;119.70;;;;;;;19.81;73.77;99766.70;131257;1257;107472;-76
2023/10/11 14:03:48;;;;;;;185.10;110.00;;;;;;;19.69;73.46;99770.87;130815;1260;108598;-74
2023/10/11 14:07:17;;;;;;;126.10;87.00;;;;;;;19.63;73.16;99772.84;130820;1259;106980;-74
2023/10/11 14:10:26;;;;;;;60.30;40.50;;;;;;;19.58;73.00;99773.94;130764;1260;106267;-73
2023/10/11 14:13:34;;;;;;;33.50;25.80;;;;;;;19.53;72.99;99772.65;130807;1258;106578;-75
2023/10/11 14:16:41;;;;;;;14.20;11.70;;;;;;;19.49;72.83;99771.06;131061;1259;107225;-78
2023/10/11 14:19:50;;;;;;;25.00;18.20;;;;;;;19.44;73.01;99763.63;130939;1257;108791;-75
2023/10/11 14:22:57;;;;;;;17.60;12.00;;;;;;;19.40;72.78;99762.87;132157;1254;107184;-78
2023/10/11 14:26:05;;;;;;;19.30;14.40;;;;;;;19.36;72.74;99762.12;131034;1253;107793;-77
2023/10/11 14:29:10;;;;;;;11.60;7.50;;;;;;;19.33;72.71;99762.98;131090;1254;108631;-77
2023/10/11 14:32:17;;;;;;;8.30;5.40;;;;;;;19.28;72.77;99751.55;130913;1259;106660;-78
2023/10/11 14:35:24;;;;;;;9.10;5.40;;;;;;;19.22;72.72;99750.93;131090;1255;108705;-77